sensor_id;sensor_type;location;lat;lon;timestamp;P1;durP1;ratioP1;P2;durP2;ratioP2
9496;SDS011;4786;51.270;4.456;2023-03-23T00:02:05;5.03;;;3.07;;
9496;SDS011;4786;51.270;4.456;2023-03-23T00:04:31;4.67;;;3.70;;
9496;SDS011;4786;51.270;4.456;2023-03-23T00:06:57;3.30;;;3.00;;
9496;SDS011;4786;51.270;4.456;2023-03-23T00:09:26;5.33;;;3.30;;
9496;SDS011;4786;51.270;4.456;2023-03-23T00:11:52;5.00;;;3.83;;
9496;SDS011;4786;51.270;4.456;2023-03-23T00:14:30;4.17;;;3.70;;
9496;SDS011;4786;51.270;4.456;2023-03-23T00:17:06;4.97;;;4.00;;
9496;SDS011;4786;51.270;4.456;2023-03-23T00:19:38;7.90;;;3.73;;
9496;SDS011;4786;51.270;4.456;2023-03-23T00:22:23;4.03;;;3.63;;
9496;SDS011;4786;51.270;4.456;2023-03-23T00:24:50;4.30;;;3.43;;
9496;SDS011;4786;51.270;4.456;2023-03-23T00:27:17;4.30;;;3.33;;
9496;SDS011;4786;51.270;4.456;2023-03-23T00:29:43;6.37;;;4.17;;
9496;SDS011;4786;51.270;4.456;2023-03-23T00:32:12;4.10;;;3.70;;
9496;SDS011;4786;51.270;4.456;2023-03-23T00:34:39;4.97;;;3.80;;
9496;SDS011;4786;51.270;4.456;2023-03-23T00:37:10;4.03;;;3.30;;
9496;SDS011;4786;51.270;4.456;2023-03-23T00:39:37;4.07;;;3.67;;
9496;SDS011;4786;51.270;4.456;2023-03-23T00:42:04;5.33;;;4.13;;
9496;SDS011;4786;51.270;4.456;2023-03-23T00:44:30;6.00;;;4.27;;
9496;SDS011;4786;51.270;4.456;2023-03-23T00:46:59;4.37;;;3.97;;
9496;SDS011;4786;51.270;4.456;2023-03-23T00:49:26;4.30;;;3.90;;
9496;SDS011;4786;51.270;4.456;2023-03-23T00:51:52;4.40;;;4.00;;
9496;SDS011;4786;51.270;4.456;2023-03-23T00:54:20;5.00;;;4.07;;
9496;SDS011;4786;51.270;4.456;2023-03-23T00:56:46;4.80;;;4.17;;
9496;SDS011;4786;51.270;4.456;2023-03-23T00:59:13;4.80;;;4.30;;
9496;SDS011;4786;51.270;4.456;2023-03-23T01:01:38;4.43;;;4.03;;
9496;SDS011;4786;51.270;4.456;2023-03-23T01:04:05;4.60;;;4.20;;
9496;SDS011;4786;51.270;4.456;2023-03-23T01:06:32;5.10;;;4.10;;
9496;SDS011;4786;51.270;4.456;2023-03-23T01:09:00;6.50;;;4.13;;
9496;SDS011;4786;51.270;4.456;2023-03-23T01:11:28;5.90;;;3.93;;
9496;SDS011;4786;51.270;4.456;2023-03-23T01:13:54;6.17;;;4.17;;
9496;SDS011;4786;51.270;4.456;2023-03-23T01:16:21;4.43;;;3.80;;
9496;SDS011;4786;51.270;4.456;2023-03-23T01:18:46;4.63;;;4.23;;
9496;SDS011;4786;51.270;4.456;2023-03-23T01:21:14;6.03;;;3.97;;
9496;SDS011;4786;51.270;4.456;2023-03-23T01:23:41;4.33;;;3.77;;
9496;SDS011;4786;51.270;4.456;2023-03-23T01:26:08;4.80;;;4.13;;
9496;SDS011;4786;51.270;4.456;2023-03-23T01:28:35;4.80;;;3.80;;
9496;SDS011;4786;51.270;4.456;2023-03-23T01:31:02;5.27;;;3.93;;
9496;SDS011;4786;51.270;4.456;2023-03-23T01:33:30;4.93;;;3.80;;
9496;SDS011;4786;51.270;4.456;2023-03-23T01:35:57;5.53;;;3.70;;
9496;SDS011;4786;51.270;4.456;2023-03-23T01:38:23;5.33;;;4.00;;
9496;SDS011;4786;51.270;4.456;2023-03-23T01:40:49;4.47;;;3.93;;
9496;SDS011;4786;51.270;4.456;2023-03-23T01:43:16;4.43;;;3.47;;
9496;SDS011;4786;51.270;4.456;2023-03-23T01:45:42;6.40;;;3.77;;
9496;SDS011;4786;51.270;4.456;2023-03-23T01:48:13;3.97;;;3.50;;
9496;SDS011;4786;51.270;4.456;2023-03-23T01:50:45;5.13;;;3.67;;
9496;SDS011;4786;51.270;4.456;2023-03-23T01:53:22;4.83;;;3.47;;
9496;SDS011;4786;51.270;4.456;2023-03-23T01:55:54;5.50;;;3.50;;
9496;SDS011;4786;51.270;4.456;2023-03-23T01:58:23;3.50;;;3.20;;
9496;SDS011;4786;51.270;4.456;2023-03-23T02:00:53;4.10;;;3.20;;
9496;SDS011;4786;51.270;4.456;2023-03-23T02:03:20;3.40;;;3.10;;
9496;SDS011;4786;51.270;4.456;2023-03-23T02:05:48;3.70;;;3.23;;
9496;SDS011;4786;51.270;4.456;2023-03-23T02:08:15;3.40;;;3.10;;
9496;SDS011;4786;51.270;4.456;2023-03-23T02:10:43;3.57;;;3.10;;
9496;SDS011;4786;51.270;4.456;2023-03-23T02:13:09;4.40;;;3.30;;
9496;SDS011;4786;51.270;4.456;2023-03-23T02:20:59;5.83;;;3.20;;
9496;SDS011;4786;51.270;4.456;2023-03-23T02:26:34;3.63;;;3.07;;
9496;SDS011;4786;51.270;4.456;2023-03-23T02:32:02;3.30;;;2.73;;
9496;SDS011;4786;51.270;4.456;2023-03-23T02:34:47;3.00;;;2.80;;
9496;SDS011;4786;51.270;4.456;2023-03-23T02:37:36;5.23;;;2.80;;
9496;SDS011;4786;51.270;4.456;2023-03-23T02:42:45;3.83;;;2.87;;
9496;SDS011;4786;51.270;4.456;2023-03-23T02:45:15;4.10;;;2.83;;
9496;SDS011;4786;51.270;4.456;2023-03-23T02:47:44;5.23;;;2.50;;
9496;SDS011;4786;51.270;4.456;2023-03-23T02:50:13;3.67;;;2.97;;
9496;SDS011;4786;51.270;4.456;2023-03-23T02:52:42;5.90;;;2.67;;
9496;SDS011;4786;51.270;4.456;2023-03-23T02:55:10;6.30;;;3.13;;
9496;SDS011;4786;51.270;4.456;2023-03-23T02:57:39;3.07;;;2.63;;
9496;SDS011;4786;51.270;4.456;2023-03-23T03:00:06;4.70;;;2.60;;
9496;SDS011;4786;51.270;4.456;2023-03-23T03:02:35;4.07;;;2.77;;
9496;SDS011;4786;51.270;4.456;2023-03-23T03:07:59;2.57;;;2.33;;
9496;SDS011;4786;51.270;4.456;2023-03-23T03:10:58;5.93;;;2.40;;
9496;SDS011;4786;51.270;4.456;2023-03-23T03:18:50;7.03;;;2.60;;
9496;SDS011;4786;51.270;4.456;2023-03-23T03:21:30;7.13;;;2.40;;
9496;SDS011;4786;51.270;4.456;2023-03-23T03:24:01;4.50;;;2.30;;
9496;SDS011;4786;51.270;4.456;2023-03-23T03:26:30;5.60;;;2.53;;
9496;SDS011;4786;51.270;4.456;2023-03-23T03:28:59;6.20;;;2.50;;
9496;SDS011;4786;51.270;4.456;2023-03-23T03:31:27;5.87;;;2.20;;
9496;SDS011;4786;51.270;4.456;2023-03-23T03:33:57;3.10;;;1.93;;
9496;SDS011;4786;51.270;4.456;2023-03-23T03:36:27;4.70;;;2.27;;
9496;SDS011;4786;51.270;4.456;2023-03-23T03:39:00;10.80;;;2.63;;
9496;SDS011;4786;51.270;4.456;2023-03-23T03:41:32;6.03;;;2.60;;
9496;SDS011;4786;51.270;4.456;2023-03-23T03:43:59;5.97;;;2.10;;
9496;SDS011;4786;51.270;4.456;2023-03-23T03:46:26;3.30;;;1.90;;
9496;SDS011;4786;51.270;4.456;2023-03-23T03:48:54;5.43;;;2.50;;
9496;SDS011;4786;51.270;4.456;2023-03-23T03:51:21;4.93;;;2.10;;
9496;SDS011;4786;51.270;4.456;2023-03-23T03:53:48;6.40;;;2.50;;
9496;SDS011;4786;51.270;4.456;2023-03-23T03:56:14;4.30;;;2.30;;
9496;SDS011;4786;51.270;4.456;2023-03-23T03:58:40;6.07;;;2.00;;
9496;SDS011;4786;51.270;4.456;2023-03-23T04:01:07;4.43;;;2.00;;
9496;SDS011;4786;51.270;4.456;2023-03-23T04:03:37;4.50;;;2.00;;
9496;SDS011;4786;51.270;4.456;2023-03-23T04:06:10;9.37;;;2.33;;
9496;SDS011;4786;51.270;4.456;2023-03-23T04:08:39;4.97;;;2.30;;
9496;SDS011;4786;51.270;4.456;2023-03-23T04:11:06;4.20;;;2.00;;
9496;SDS011;4786;51.270;4.456;2023-03-23T04:13:33;4.27;;;2.10;;
9496;SDS011;4786;51.270;4.456;2023-03-23T04:15:59;5.37;;;2.17;;
9496;SDS011;4786;51.270;4.456;2023-03-23T04:18:26;5.93;;;2.20;;
9496;SDS011;4786;51.270;4.456;2023-03-23T04:20:52;5.13;;;2.20;;
9496;SDS011;4786;51.270;4.456;2023-03-23T04:23:18;4.90;;;2.30;;
9496;SDS011;4786;51.270;4.456;2023-03-23T04:25:47;5.27;;;2.10;;
9496;SDS011;4786;51.270;4.456;2023-03-23T04:28:14;4.43;;;2.40;;
9496;SDS011;4786;51.270;4.456;2023-03-23T04:30:43;4.80;;;2.03;;
9496;SDS011;4786;51.270;4.456;2023-03-23T04:33:11;4.43;;;2.20;;
9496;SDS011;4786;51.270;4.456;2023-03-23T04:35:41;5.87;;;2.20;;
9496;SDS011;4786;51.270;4.456;2023-03-23T04:38:10;4.63;;;2.07;;
9496;SDS011;4786;51.270;4.456;2023-03-23T04:40:39;5.70;;;2.27;;
9496;SDS011;4786;51.270;4.456;2023-03-23T04:43:06;5.37;;;2.07;;
9496;SDS011;4786;51.270;4.456;2023-03-23T04:45:33;4.93;;;2.23;;
9496;SDS011;4786;51.270;4.456;2023-03-23T04:48:02;7.10;;;2.20;;
9496;SDS011;4786;51.270;4.456;2023-03-23T04:50:29;6.23;;;2.53;;
9496;SDS011;4786;51.270;4.456;2023-03-23T04:52:57;6.00;;;2.53;;
9496;SDS011;4786;51.270;4.456;2023-03-23T04:55:25;6.63;;;2.87;;
9496;SDS011;4786;51.270;4.456;2023-03-23T04:57:51;6.03;;;2.37;;
9496;SDS011;4786;51.270;4.456;2023-03-23T05:00:18;14.73;;;2.97;;
9496;SDS011;4786;51.270;4.456;2023-03-23T05:02:46;6.13;;;2.43;;
9496;SDS011;4786;51.270;4.456;2023-03-23T05:05:16;8.47;;;2.70;;
9496;SDS011;4786;51.270;4.456;2023-03-23T05:07:44;5.70;;;2.60;;
9496;SDS011;4786;51.270;4.456;2023-03-23T05:10:10;5.17;;;2.30;;
9496;SDS011;4786;51.270;4.456;2023-03-23T05:12:37;4.30;;;2.17;;
9496;SDS011;4786;51.270;4.456;2023-03-23T05:15:05;7.00;;;2.43;;
9496;SDS011;4786;51.270;4.456;2023-03-23T05:17:31;5.87;;;2.47;;
9496;SDS011;4786;51.270;4.456;2023-03-23T05:19:58;5.87;;;2.37;;
9496;SDS011;4786;51.270;4.456;2023-03-23T05:22:26;8.07;;;2.50;;
9496;SDS011;4786;51.270;4.456;2023-03-23T05:24:53;8.47;;;2.60;;
9496;SDS011;4786;51.270;4.456;2023-03-23T05:27:19;11.73;;;2.23;;
9496;SDS011;4786;51.270;4.456;2023-03-23T05:29:45;11.73;;;2.67;;
9496;SDS011;4786;51.270;4.456;2023-03-23T05:32:15;8.63;;;2.80;;
9496;SDS011;4786;51.270;4.456;2023-03-23T05:34:44;10.77;;;3.10;;
9496;SDS011;4786;51.270;4.456;2023-03-23T05:37:11;7.77;;;2.67;;
9496;SDS011;4786;51.270;4.456;2023-03-23T05:39:37;6.57;;;2.90;;
9496;SDS011;4786;51.270;4.456;2023-03-23T05:42:03;7.67;;;2.63;;
9496;SDS011;4786;51.270;4.456;2023-03-23T05:44:30;8.77;;;3.00;;
9496;SDS011;4786;51.270;4.456;2023-03-23T05:46:56;7.47;;;2.90;;
9496;SDS011;4786;51.270;4.456;2023-03-23T05:49:22;7.73;;;2.83;;
9496;SDS011;4786;51.270;4.456;2023-03-23T05:51:49;7.33;;;2.43;;
9496;SDS011;4786;51.270;4.456;2023-03-23T05:54:15;8.03;;;2.80;;
9496;SDS011;4786;51.270;4.456;2023-03-23T05:56:41;7.00;;;2.57;;
9496;SDS011;4786;51.270;4.456;2023-03-23T05:59:07;7.30;;;2.20;;
9496;SDS011;4786;51.270;4.456;2023-03-23T06:01:35;5.47;;;2.57;;
9496;SDS011;4786;51.270;4.456;2023-03-23T06:04:01;7.57;;;2.43;;
9496;SDS011;4786;51.270;4.456;2023-03-23T06:06:27;6.47;;;2.40;;
9496;SDS011;4786;51.270;4.456;2023-03-23T06:08:55;6.93;;;2.40;;
9496;SDS011;4786;51.270;4.456;2023-03-23T06:11:21;3.03;;;2.17;;
9496;SDS011;4786;51.270;4.456;2023-03-23T06:13:49;6.00;;;2.30;;
9496;SDS011;4786;51.270;4.456;2023-03-23T06:16:15;6.83;;;2.30;;
9496;SDS011;4786;51.270;4.456;2023-03-23T06:18:41;6.17;;;2.60;;
9496;SDS011;4786;51.270;4.456;2023-03-23T06:21:08;6.63;;;2.63;;
9496;SDS011;4786;51.270;4.456;2023-03-23T06:23:35;6.83;;;2.43;;
9496;SDS011;4786;51.270;4.456;2023-03-23T06:26:04;6.20;;;2.93;;
9496;SDS011;4786;51.270;4.456;2023-03-23T06:28:31;8.00;;;2.80;;
9496;SDS011;4786;51.270;4.456;2023-03-23T06:30:59;11.23;;;3.00;;
9496;SDS011;4786;51.270;4.456;2023-03-23T06:33:26;7.83;;;2.93;;
9496;SDS011;4786;51.270;4.456;2023-03-23T06:35:52;8.13;;;2.90;;
9496;SDS011;4786;51.270;4.456;2023-03-23T06:38:19;5.17;;;2.07;;
9496;SDS011;4786;51.270;4.456;2023-03-23T06:40:45;9.33;;;2.70;;
9496;SDS011;4786;51.270;4.456;2023-03-23T06:43:11;4.67;;;1.83;;
9496;SDS011;4786;51.270;4.456;2023-03-23T06:45:38;5.90;;;2.17;;
9496;SDS011;4786;51.270;4.456;2023-03-23T06:48:04;5.37;;;1.73;;
9496;SDS011;4786;51.270;4.456;2023-03-23T06:50:30;3.43;;;1.47;;
9496;SDS011;4786;51.270;4.456;2023-03-23T06:52:56;3.87;;;1.60;;
9496;SDS011;4786;51.270;4.456;2023-03-23T06:55:22;5.70;;;1.80;;
9496;SDS011;4786;51.270;4.456;2023-03-23T06:57:48;2.83;;;1.60;;
9496;SDS011;4786;51.270;4.456;2023-03-23T07:00:15;9.33;;;1.80;;
9496;SDS011;4786;51.270;4.456;2023-03-23T07:02:43;6.43;;;2.10;;
9496;SDS011;4786;51.270;4.456;2023-03-23T07:05:10;4.47;;;1.60;;
9496;SDS011;4786;51.270;4.456;2023-03-23T07:07:37;3.97;;;1.80;;
9496;SDS011;4786;51.270;4.456;2023-03-23T07:10:04;3.57;;;1.80;;
9496;SDS011;4786;51.270;4.456;2023-03-23T07:12:31;6.60;;;2.37;;
9496;SDS011;4786;51.270;4.456;2023-03-23T07:14:58;5.97;;;2.10;;
9496;SDS011;4786;51.270;4.456;2023-03-23T07:17:24;4.83;;;2.00;;
9496;SDS011;4786;51.270;4.456;2023-03-23T07:19:50;8.03;;;2.30;;
9496;SDS011;4786;51.270;4.456;2023-03-23T07:22:16;5.63;;;1.83;;
9496;SDS011;4786;51.270;4.456;2023-03-23T07:24:42;4.80;;;2.00;;
9496;SDS011;4786;51.270;4.456;2023-03-23T07:27:08;5.73;;;1.93;;
9496;SDS011;4786;51.270;4.456;2023-03-23T07:29:34;4.70;;;1.90;;
9496;SDS011;4786;51.270;4.456;2023-03-23T07:32:03;5.17;;;2.13;;
9496;SDS011;4786;51.270;4.456;2023-03-23T07:34:30;5.00;;;2.40;;
9496;SDS011;4786;51.270;4.456;2023-03-23T07:36:56;4.30;;;2.10;;
9496;SDS011;4786;51.270;4.456;2023-03-23T07:39:22;7.50;;;2.30;;
9496;SDS011;4786;51.270;4.456;2023-03-23T07:41:49;7.80;;;2.03;;
9496;SDS011;4786;51.270;4.456;2023-03-23T07:44:15;6.10;;;2.20;;
9496;SDS011;4786;51.270;4.456;2023-03-23T07:46:41;4.23;;;1.57;;
9496;SDS011;4786;51.270;4.456;2023-03-23T07:49:07;6.57;;;2.20;;
9496;SDS011;4786;51.270;4.456;2023-03-23T07:51:34;3.90;;;1.80;;
9496;SDS011;4786;51.270;4.456;2023-03-23T07:54:00;5.27;;;2.07;;
9496;SDS011;4786;51.270;4.456;2023-03-23T07:56:29;6.50;;;2.00;;
9496;SDS011;4786;51.270;4.456;2023-03-23T07:59:02;3.83;;;1.97;;
9496;SDS011;4786;51.270;4.456;2023-03-23T08:01:29;4.37;;;1.50;;
9496;SDS011;4786;51.270;4.456;2023-03-23T08:03:56;5.43;;;1.90;;
9496;SDS011;4786;51.270;4.456;2023-03-23T08:06:23;4.50;;;1.73;;
9496;SDS011;4786;51.270;4.456;2023-03-23T08:08:49;4.27;;;1.50;;
9496;SDS011;4786;51.270;4.456;2023-03-23T08:11:16;6.27;;;1.93;;
9496;SDS011;4786;51.270;4.456;2023-03-23T08:13:43;5.70;;;1.80;;
9496;SDS011;4786;51.270;4.456;2023-03-23T08:16:10;4.03;;;2.00;;
9496;SDS011;4786;51.270;4.456;2023-03-23T08:18:36;4.67;;;1.70;;
9496;SDS011;4786;51.270;4.456;2023-03-23T08:21:04;3.77;;;1.83;;
9496;SDS011;4786;51.270;4.456;2023-03-23T08:23:31;7.67;;;2.43;;
9496;SDS011;4786;51.270;4.456;2023-03-23T08:25:57;5.17;;;1.90;;
9496;SDS011;4786;51.270;4.456;2023-03-23T08:28:24;5.80;;;2.13;;
9496;SDS011;4786;51.270;4.456;2023-03-23T08:30:50;3.60;;;1.63;;
9496;SDS011;4786;51.270;4.456;2023-03-23T08:33:16;8.00;;;2.17;;
9496;SDS011;4786;51.270;4.456;2023-03-23T08:35:42;8.13;;;2.40;;
9496;SDS011;4786;51.270;4.456;2023-03-23T08:38:09;5.60;;;2.13;;
9496;SDS011;4786;51.270;4.456;2023-03-23T08:40:36;6.10;;;2.20;;
9496;SDS011;4786;51.270;4.456;2023-03-23T08:43:02;6.83;;;2.40;;
9496;SDS011;4786;51.270;4.456;2023-03-23T08:45:28;6.73;;;2.40;;
9496;SDS011;4786;51.270;4.456;2023-03-23T08:47:54;5.37;;;2.17;;
9496;SDS011;4786;51.270;4.456;2023-03-23T08:50:22;5.73;;;2.03;;
9496;SDS011;4786;51.270;4.456;2023-03-23T08:52:50;6.43;;;2.10;;
9496;SDS011;4786;51.270;4.456;2023-03-23T08:55:17;5.73;;;2.00;;
9496;SDS011;4786;51.270;4.456;2023-03-23T08:57:44;6.10;;;2.27;;
9496;SDS011;4786;51.270;4.456;2023-03-23T09:00:11;7.97;;;2.67;;
9496;SDS011;4786;51.270;4.456;2023-03-23T09:02:42;4.37;;;2.37;;
9496;SDS011;4786;51.270;4.456;2023-03-23T09:05:09;6.13;;;2.07;;
9496;SDS011;4786;51.270;4.456;2023-03-23T09:07:37;7.67;;;2.47;;
9496;SDS011;4786;51.270;4.456;2023-03-23T09:10:04;6.03;;;2.10;;
9496;SDS011;4786;51.270;4.456;2023-03-23T09:12:32;5.47;;;2.03;;
9496;SDS011;4786;51.270;4.456;2023-03-23T09:14:58;4.93;;;2.03;;
9496;SDS011;4786;51.270;4.456;2023-03-23T09:17:24;4.77;;;2.10;;
9496;SDS011;4786;51.270;4.456;2023-03-23T09:19:50;4.57;;;1.97;;
9496;SDS011;4786;51.270;4.456;2023-03-23T09:22:16;4.80;;;2.17;;
9496;SDS011;4786;51.270;4.456;2023-03-23T09:24:45;8.40;;;1.93;;
9496;SDS011;4786;51.270;4.456;2023-03-23T09:27:11;5.97;;;2.27;;
9496;SDS011;4786;51.270;4.456;2023-03-23T09:29:37;4.63;;;2.00;;
9496;SDS011;4786;51.270;4.456;2023-03-23T09:32:03;6.43;;;2.23;;
9496;SDS011;4786;51.270;4.456;2023-03-23T09:34:29;6.57;;;2.20;;
9496;SDS011;4786;51.270;4.456;2023-03-23T09:36:55;7.63;;;2.60;;
9496;SDS011;4786;51.270;4.456;2023-03-23T09:39:21;5.00;;;2.03;;
9496;SDS011;4786;51.270;4.456;2023-03-23T09:41:54;6.47;;;2.70;;
9496;SDS011;4786;51.270;4.456;2023-03-23T09:44:57;8.80;;;2.90;;
9496;SDS011;4786;51.270;4.456;2023-03-23T09:47:38;5.90;;;2.50;;
9496;SDS011;4786;51.270;4.456;2023-03-23T09:50:25;6.63;;;2.47;;
9496;SDS011;4786;51.270;4.456;2023-03-23T09:53:10;6.90;;;2.23;;
9496;SDS011;4786;51.270;4.456;2023-03-23T09:55:43;6.73;;;2.20;;
9496;SDS011;4786;51.270;4.456;2023-03-23T09:58:17;5.37;;;2.50;;
9496;SDS011;4786;51.270;4.456;2023-03-23T10:00:57;3.83;;;1.80;;
9496;SDS011;4786;51.270;4.456;2023-03-23T10:03:31;5.00;;;2.13;;
9496;SDS011;4786;51.270;4.456;2023-03-23T10:06:04;5.70;;;2.50;;
9496;SDS011;4786;51.270;4.456;2023-03-23T10:08:33;6.73;;;2.50;;
9496;SDS011;4786;51.270;4.456;2023-03-23T10:16:15;7.13;;;2.23;;
9496;SDS011;4786;51.270;4.456;2023-03-23T10:18:47;5.60;;;2.20;;
9496;SDS011;4786;51.270;4.456;2023-03-23T10:21:21;5.13;;;2.40;;
9496;SDS011;4786;51.270;4.456;2023-03-23T10:29:33;6.63;;;2.30;;
9496;SDS011;4786;51.270;4.456;2023-03-23T10:32:20;4.73;;;2.20;;
9496;SDS011;4786;51.270;4.456;2023-03-23T10:35:02;4.20;;;2.10;;
9496;SDS011;4786;51.270;4.456;2023-03-23T10:37:32;3.97;;;1.90;;
9496;SDS011;4786;51.270;4.456;2023-03-23T10:40:04;4.27;;;1.90;;
9496;SDS011;4786;51.270;4.456;2023-03-23T10:42:38;4.27;;;2.00;;
9496;SDS011;4786;51.270;4.456;2023-03-23T10:45:14;5.73;;;1.97;;
9496;SDS011;4786;51.270;4.456;2023-03-23T10:47:48;3.70;;;2.13;;
9496;SDS011;4786;51.270;4.456;2023-03-23T10:50:22;7.37;;;2.50;;
9496;SDS011;4786;51.270;4.456;2023-03-23T10:52:52;5.67;;;2.60;;
9496;SDS011;4786;51.270;4.456;2023-03-23T10:55:20;6.53;;;2.67;;
9496;SDS011;4786;51.270;4.456;2023-03-23T10:58:03;5.47;;;2.57;;
9496;SDS011;4786;51.270;4.456;2023-03-23T11:00:31;6.03;;;2.70;;
9496;SDS011;4786;51.270;4.456;2023-03-23T11:03:02;6.50;;;2.47;;
9496;SDS011;4786;51.270;4.456;2023-03-23T11:05:34;4.40;;;2.43;;
9496;SDS011;4786;51.270;4.456;2023-03-23T11:08:32;6.00;;;2.70;;
9496;SDS011;4786;51.270;4.456;2023-03-23T11:11:27;6.93;;;2.87;;
9496;SDS011;4786;51.270;4.456;2023-03-23T11:14:15;7.13;;;2.53;;
9496;SDS011;4786;51.270;4.456;2023-03-23T11:16:52;7.93;;;3.20;;
9496;SDS011;4786;51.270;4.456;2023-03-23T11:24:30;11.33;;;2.90;;
9496;SDS011;4786;51.270;4.456;2023-03-23T11:26:59;7.27;;;2.87;;
9496;SDS011;4786;51.270;4.456;2023-03-23T11:29:26;5.50;;;2.70;;
9496;SDS011;4786;51.270;4.456;2023-03-23T11:32:01;5.23;;;2.63;;
9496;SDS011;4786;51.270;4.456;2023-03-23T11:34:35;6.60;;;2.83;;
9496;SDS011;4786;51.270;4.456;2023-03-23T11:37:28;8.40;;;2.93;;
9496;SDS011;4786;51.270;4.456;2023-03-23T11:40:01;9.50;;;3.03;;
9496;SDS011;4786;51.270;4.456;2023-03-23T11:56:06;8.77;;;3.30;;
9496;SDS011;4786;51.270;4.456;2023-03-23T11:58:33;4.93;;;2.63;;
9496;SDS011;4786;51.270;4.456;2023-03-23T12:01:04;6.67;;;3.00;;
9496;SDS011;4786;51.270;4.456;2023-03-23T12:03:43;6.97;;;2.90;;
9496;SDS011;4786;51.270;4.456;2023-03-23T12:11:55;12.00;;;3.47;;
9496;SDS011;4786;51.270;4.456;2023-03-23T12:14:43;9.20;;;3.37;;
9496;SDS011;4786;51.270;4.456;2023-03-23T12:41:51;7.70;;;2.73;;
9496;SDS011;4786;51.270;4.456;2023-03-23T12:44:41;10.23;;;2.70;;
9496;SDS011;4786;51.270;4.456;2023-03-23T12:53:27;7.40;;;2.60;;
9496;SDS011;4786;51.270;4.456;2023-03-23T12:59:11;8.23;;;2.70;;
9496;SDS011;4786;51.270;4.456;2023-03-23T13:01:46;11.90;;;3.17;;
9496;SDS011;4786;51.270;4.456;2023-03-23T13:04:27;9.13;;;3.20;;
9496;SDS011;4786;51.270;4.456;2023-03-23T13:06:59;13.60;;;3.17;;
9496;SDS011;4786;51.270;4.456;2023-03-23T13:12:18;7.70;;;3.33;;
9496;SDS011;4786;51.270;4.456;2023-03-23T13:17:33;10.13;;;3.27;;
9496;SDS011;4786;51.270;4.456;2023-03-23T13:25:53;7.57;;;2.97;;
9496;SDS011;4786;51.270;4.456;2023-03-23T13:28:28;9.80;;;3.07;;
9496;SDS011;4786;51.270;4.456;2023-03-23T13:31:00;12.93;;;3.40;;
9496;SDS011;4786;51.270;4.456;2023-03-23T13:33:29;14.00;;;3.47;;
9496;SDS011;4786;51.270;4.456;2023-03-23T13:36:13;13.90;;;3.80;;
9496;SDS011;4786;51.270;4.456;2023-03-23T13:38:45;9.40;;;3.30;;
9496;SDS011;4786;51.270;4.456;2023-03-23T13:41:14;14.23;;;3.87;;
9496;SDS011;4786;51.270;4.456;2023-03-23T13:43:43;12.60;;;3.97;;
9496;SDS011;4786;51.270;4.456;2023-03-23T13:46:29;9.13;;;3.70;;
9496;SDS011;4786;51.270;4.456;2023-03-23T13:49:16;14.17;;;3.67;;
9496;SDS011;4786;51.270;4.456;2023-03-23T13:54:31;8.47;;;3.30;;
9496;SDS011;4786;51.270;4.456;2023-03-23T13:57:25;8.40;;;3.30;;
9496;SDS011;4786;51.270;4.456;2023-03-23T13:59:59;8.70;;;3.00;;
9496;SDS011;4786;51.270;4.456;2023-03-23T14:02:50;6.57;;;2.87;;
9496;SDS011;4786;51.270;4.456;2023-03-23T14:10:35;10.17;;;2.83;;
9496;SDS011;4786;51.270;4.456;2023-03-23T14:13:10;7.80;;;3.20;;
9496;SDS011;4786;51.270;4.456;2023-03-23T14:15:44;7.70;;;3.10;;
9496;SDS011;4786;51.270;4.456;2023-03-23T14:18:21;8.27;;;2.77;;
9496;SDS011;4786;51.270;4.456;2023-03-23T14:20:49;8.70;;;3.03;;
9496;SDS011;4786;51.270;4.456;2023-03-23T14:23:16;9.33;;;3.20;;
9496;SDS011;4786;51.270;4.456;2023-03-23T14:25:44;9.33;;;3.13;;
9496;SDS011;4786;51.270;4.456;2023-03-23T14:28:17;11.40;;;3.50;;
9496;SDS011;4786;51.270;4.456;2023-03-23T14:30:46;7.83;;;3.10;;
9496;SDS011;4786;51.270;4.456;2023-03-23T14:33:12;8.60;;;3.33;;
9496;SDS011;4786;51.270;4.456;2023-03-23T14:35:40;8.17;;;2.83;;
9496;SDS011;4786;51.270;4.456;2023-03-23T14:38:18;5.70;;;2.43;;
9496;SDS011;4786;51.270;4.456;2023-03-23T14:40:49;6.97;;;2.30;;
9496;SDS011;4786;51.270;4.456;2023-03-23T14:43:17;8.03;;;2.20;;
9496;SDS011;4786;51.270;4.456;2023-03-23T14:45:50;9.70;;;2.90;;
9496;SDS011;4786;51.270;4.456;2023-03-23T14:48:18;8.63;;;2.43;;
9496;SDS011;4786;51.270;4.456;2023-03-23T14:50:50;6.63;;;2.60;;
9496;SDS011;4786;51.270;4.456;2023-03-23T14:55:51;7.50;;;2.63;;
9496;SDS011;4786;51.270;4.456;2023-03-23T14:58:21;5.97;;;2.53;;
9496;SDS011;4786;51.270;4.456;2023-03-23T15:03:37;5.40;;;2.63;;
9496;SDS011;4786;51.270;4.456;2023-03-23T15:06:12;10.37;;;3.23;;
9496;SDS011;4786;51.270;4.456;2023-03-23T15:08:41;9.90;;;2.83;;
9496;SDS011;4786;51.270;4.456;2023-03-23T15:11:21;7.37;;;3.17;;
9496;SDS011;4786;51.270;4.456;2023-03-23T15:13:51;8.43;;;2.93;;
9496;SDS011;4786;51.270;4.456;2023-03-23T15:21:38;8.87;;;3.30;;
9496;SDS011;4786;51.270;4.456;2023-03-23T15:26:51;7.73;;;3.03;;
9496;SDS011;4786;51.270;4.456;2023-03-23T15:29:19;8.00;;;3.13;;
9496;SDS011;4786;51.270;4.456;2023-03-23T15:31:49;8.43;;;2.97;;
9496;SDS011;4786;51.270;4.456;2023-03-23T15:36:51;5.63;;;2.63;;
9496;SDS011;4786;51.270;4.456;2023-03-23T15:39:20;6.40;;;2.77;;
9496;SDS011;4786;51.270;4.456;2023-03-23T15:41:48;8.57;;;3.03;;
9496;SDS011;4786;51.270;4.456;2023-03-23T15:44:23;5.83;;;2.70;;
9496;SDS011;4786;51.270;4.456;2023-03-23T15:47:33;7.10;;;2.63;;
9496;SDS011;4786;51.270;4.456;2023-03-23T15:49:58;7.20;;;3.30;;
9496;SDS011;4786;51.270;4.456;2023-03-23T15:52:28;9.13;;;2.83;;
9496;SDS011;4786;51.270;4.456;2023-03-23T15:54:54;9.90;;;3.70;;
9496;SDS011;4786;51.270;4.456;2023-03-23T15:57:20;7.80;;;3.10;;
9496;SDS011;4786;51.270;4.456;2023-03-23T15:59:46;5.80;;;2.53;;
9496;SDS011;4786;51.270;4.456;2023-03-23T16:02:17;7.67;;;3.40;;
9496;SDS011;4786;51.270;4.456;2023-03-23T16:04:46;6.63;;;3.17;;
9496;SDS011;4786;51.270;4.456;2023-03-23T16:07:12;10.17;;;3.10;;
9496;SDS011;4786;51.270;4.456;2023-03-23T16:09:39;8.00;;;3.57;;
9496;SDS011;4786;51.270;4.456;2023-03-23T16:12:09;11.13;;;3.70;;
9496;SDS011;4786;51.270;4.456;2023-03-23T16:14:37;9.30;;;4.20;;
9496;SDS011;4786;51.270;4.456;2023-03-23T16:17:04;7.63;;;3.37;;
9496;SDS011;4786;51.270;4.456;2023-03-23T16:19:30;11.63;;;3.53;;
9496;SDS011;4786;51.270;4.456;2023-03-23T16:21:57;12.20;;;3.63;;
9496;SDS011;4786;51.270;4.456;2023-03-23T16:24:23;10.10;;;3.60;;
9496;SDS011;4786;51.270;4.456;2023-03-23T16:26:48;10.47;;;3.60;;
9496;SDS011;4786;51.270;4.456;2023-03-23T16:29:15;8.67;;;3.50;;
9496;SDS011;4786;51.270;4.456;2023-03-23T16:31:42;7.10;;;3.20;;
9496;SDS011;4786;51.270;4.456;2023-03-23T16:34:07;13.00;;;3.43;;
9496;SDS011;4786;51.270;4.456;2023-03-23T16:36:34;11.00;;;3.43;;
9496;SDS011;4786;51.270;4.456;2023-03-23T16:39:00;8.37;;;3.00;;
9496;SDS011;4786;51.270;4.456;2023-03-23T16:41:27;10.80;;;3.60;;
9496;SDS011;4786;51.270;4.456;2023-03-23T16:43:53;15.13;;;3.87;;
9496;SDS011;4786;51.270;4.456;2023-03-23T16:46:18;10.23;;;3.53;;
9496;SDS011;4786;51.270;4.456;2023-03-23T16:48:44;16.27;;;4.30;;
9496;SDS011;4786;51.270;4.456;2023-03-23T16:51:09;12.90;;;3.47;;
9496;SDS011;4786;51.270;4.456;2023-03-23T16:53:35;11.63;;;3.73;;
9496;SDS011;4786;51.270;4.456;2023-03-23T16:56:02;13.93;;;4.10;;
9496;SDS011;4786;51.270;4.456;2023-03-23T16:58:28;11.33;;;4.00;;
9496;SDS011;4786;51.270;4.456;2023-03-23T17:00:54;8.33;;;3.60;;
9496;SDS011;4786;51.270;4.456;2023-03-23T17:03:20;13.23;;;4.10;;
9496;SDS011;4786;51.270;4.456;2023-03-23T17:05:47;9.97;;;3.80;;
9496;SDS011;4786;51.270;4.456;2023-03-23T17:08:15;12.10;;;3.70;;
9496;SDS011;4786;51.270;4.456;2023-03-23T17:10:42;14.83;;;4.23;;
9496;SDS011;4786;51.270;4.456;2023-03-23T17:13:09;11.50;;;3.60;;
9496;SDS011;4786;51.270;4.456;2023-03-23T17:15:38;12.60;;;4.47;;
9496;SDS011;4786;51.270;4.456;2023-03-23T17:18:06;10.53;;;4.30;;
9496;SDS011;4786;51.270;4.456;2023-03-23T17:20:33;10.70;;;4.27;;
9496;SDS011;4786;51.270;4.456;2023-03-23T17:23:00;8.33;;;3.60;;
9496;SDS011;4786;51.270;4.456;2023-03-23T17:25:26;11.17;;;4.27;;
9496;SDS011;4786;51.270;4.456;2023-03-23T17:27:54;10.70;;;4.10;;
9496;SDS011;4786;51.270;4.456;2023-03-23T17:30:21;11.47;;;4.03;;
9496;SDS011;4786;51.270;4.456;2023-03-23T17:32:47;11.43;;;4.07;;
9496;SDS011;4786;51.270;4.456;2023-03-23T17:35:13;8.80;;;3.27;;